createdAt,value
2023-05-14T00:01:09.869Z,98.10
2023-05-14T00:03:36.905Z,98.40
2023-05-14T00:06:04.196Z,98.10
2023-05-14T00:08:30.897Z,98.30
2023-05-14T00:10:58.360Z,98.60
2023-05-14T00:13:25.289Z,98.90
2023-05-14T00:15:51.993Z,98.50
2023-05-14T00:18:19.327Z,98.70
2023-05-14T00:20:46.009Z,99.30
2023-05-14T00:23:13.745Z,99.50
2023-05-14T00:25:40.388Z,99.60
2023-05-14T00:28:07.091Z,99.90
2023-05-14T00:30:34.252Z,99.90
2023-05-14T00:33:00.970Z,99.90
2023-05-14T00:35:28.432Z,99.90
2023-05-14T00:37:55.102Z,99.90
2023-05-14T00:40:25.376Z,99.90
2023-05-14T00:42:52.147Z,99.90
2023-05-14T00:45:18.994Z,99.90
2023-05-14T00:47:45.977Z,99.90
2023-05-14T00:50:15.773Z,99.90
2023-05-14T00:52:43.615Z,99.90
2023-05-14T00:55:15.674Z,99.90
2023-05-14T00:57:42.609Z,99.90
2023-05-14T01:00:10.194Z,99.90
2023-05-14T01:05:05.215Z,99.90
2023-05-14T01:07:39.979Z,99.90
2023-05-14T01:10:12.454Z,99.90
2023-05-14T01:12:46.360Z,99.80
2023-05-14T01:15:19.255Z,99.90
2023-05-14T01:17:49.977Z,99.20
2023-05-14T01:20:16.819Z,98.80
2023-05-14T01:22:44.136Z,99.00
2023-05-14T01:25:10.856Z,99.70
2023-05-14T01:27:46.087Z,99.50
2023-05-14T01:30:19.094Z,99.70
2023-05-14T01:32:51.042Z,99.60
2023-05-14T01:35:18.607Z,99.60
2023-05-14T01:37:46.924Z,99.50
2023-05-14T01:40:14.091Z,99.40
2023-05-14T01:42:41.877Z,99.50
2023-05-14T01:45:09.879Z,99.50
2023-05-14T01:47:36.676Z,99.40
2023-05-14T01:50:03.586Z,98.90
2023-05-14T01:52:30.348Z,99.40
2023-05-14T01:54:59.260Z,99.40
2023-05-14T01:57:25.984Z,98.80
2023-05-14T01:59:52.677Z,99.00
2023-05-14T02:02:19.395Z,98.70
2023-05-14T02:04:46.237Z,98.90
2023-05-14T02:07:12.994Z,98.30
2023-05-14T02:09:40.333Z,98.70
2023-05-14T02:12:10.355Z,98.10
2023-05-14T02:14:37.349Z,98.50
2023-05-14T02:17:04.143Z,98.00
2023-05-14T02:19:30.825Z,98.60
2023-05-14T02:21:58.606Z,98.60
2023-05-14T02:24:25.295Z,98.40
2023-05-14T02:26:51.997Z,98.40
2023-05-14T02:29:19.774Z,98.60
2023-05-14T02:31:46.685Z,97.70
2023-05-14T02:34:13.599Z,98.00
2023-05-14T02:36:40.416Z,97.60
2023-05-14T02:39:07.191Z,97.90
2023-05-14T02:41:33.919Z,98.20
2023-05-14T02:44:00.610Z,97.60
2023-05-14T02:46:28.047Z,97.70
2023-05-14T02:48:54.728Z,97.60
2023-05-14T02:51:21.532Z,97.00
2023-05-14T02:53:48.222Z,97.10
2023-05-14T02:56:15.133Z,96.10
2023-05-14T02:58:41.865Z,96.40
2023-05-14T03:01:08.657Z,96.10
2023-05-14T03:03:37.513Z,96.60
2023-05-14T03:06:05.212Z,96.30
2023-05-14T03:08:31.922Z,96.30
2023-05-14T03:10:58.625Z,96.20
2023-05-14T03:13:25.219Z,96.10
2023-05-14T03:15:54.062Z,96.00
2023-05-14T03:18:20.852Z,96.30
2023-05-14T03:20:48.219Z,95.70
2023-05-14T03:23:15.038Z,96.40
2023-05-14T03:25:41.822Z,97.10
2023-05-14T03:28:09.092Z,97.30
2023-05-14T03:30:35.947Z,97.00
2023-05-14T03:33:02.661Z,97.10
2023-05-14T03:35:30.807Z,97.00
2023-05-14T03:37:58.582Z,96.50
2023-05-14T03:40:25.736Z,96.10
2023-05-14T03:42:52.521Z,96.20
2023-05-14T03:45:19.444Z,95.60
2023-05-14T03:47:46.147Z,95.80
2023-05-14T03:50:12.817Z,95.10
2023-05-14T03:52:39.772Z,95.90
2023-05-14T03:55:08.048Z,95.20
2023-05-14T03:57:35.969Z,95.10
2023-05-14T04:00:03.035Z,95.60
2023-05-14T04:02:29.868Z,96.00
2023-05-14T04:04:56.700Z,95.80
2023-05-14T04:07:23.442Z,95.60
2023-05-14T04:09:50.167Z,96.10
2023-05-14T04:12:17.521Z,96.70
2023-05-14T04:14:44.186Z,95.70
2023-05-14T04:17:10.891Z,95.70
2023-05-14T04:19:38.600Z,95.90
2023-05-14T04:22:05.367Z,95.40
2023-05-14T04:24:32.164Z,95.70
2023-05-14T04:26:59.759Z,95.40
2023-05-14T04:29:27.044Z,96.10
2023-05-14T04:31:53.931Z,95.70
2023-05-14T04:34:20.629Z,95.80
2023-05-14T04:36:47.619Z,96.60
2023-05-14T04:39:14.287Z,96.50
2023-05-14T04:41:41.955Z,95.50
2023-05-14T04:44:08.690Z,95.40
2023-05-14T04:46:36.075Z,95.80
2023-05-14T04:49:02.767Z,95.70
2023-05-14T04:51:29.538Z,95.30
2023-05-14T04:54:03.830Z,95.10
2023-05-14T04:56:37.781Z,94.40
2023-05-14T04:59:04.662Z,94.10
2023-05-14T05:01:31.428Z,93.80
2023-05-14T05:03:58.804Z,93.50
2023-05-14T05:06:25.495Z,93.10
2023-05-14T05:08:52.229Z,93.70
2023-05-14T05:11:18.920Z,93.80
2023-05-14T05:13:45.622Z,94.10
2023-05-14T05:16:12.339Z,94.20
2023-05-14T05:18:39.450Z,94.20
2023-05-14T05:21:06.891Z,94.60
2023-05-14T05:23:33.600Z,95.00
2023-05-14T05:26:00.289Z,94.50
2023-05-14T05:28:26.949Z,94.20
2023-05-14T05:30:53.739Z,94.30
2023-05-14T05:33:20.497Z,93.80
2023-05-14T05:35:47.578Z,93.90
2023-05-14T05:38:15.341Z,93.30
2023-05-14T05:40:42.015Z,93.60
2023-05-14T05:43:08.734Z,93.50
2023-05-14T05:45:35.417Z,93.00
2023-05-14T05:48:02.136Z,92.80
2023-05-14T05:50:28.851Z,93.00
2023-05-14T05:52:55.593Z,93.00
2023-05-14T05:55:23.133Z,92.70
2023-05-14T05:57:49.862Z,92.50
2023-05-14T06:00:17.267Z,92.70
2023-05-14T06:02:44.446Z,92.10
2023-05-14T06:05:11.504Z,92.70
2023-05-14T06:07:38.728Z,91.80
2023-05-14T06:10:06.664Z,91.50
2023-05-14T06:12:34.048Z,91.50
2023-05-14T06:15:00.790Z,92.00
2023-05-14T06:17:27.571Z,91.50
2023-05-14T06:19:54.341Z,91.50
2023-05-14T06:22:21.045Z,91.20
2023-05-14T06:24:48.327Z,91.40
2023-05-14T06:27:15.067Z,91.90
2023-05-14T06:29:42.374Z,91.50
2023-05-14T06:32:09.586Z,91.00
2023-05-14T06:34:36.262Z,91.20
2023-05-14T06:37:03.473Z,91.10
2023-05-14T06:39:30.217Z,91.10
2023-05-14T06:41:56.915Z,90.90
2023-05-14T06:44:23.519Z,91.70
2023-05-14T06:46:51.361Z,90.60
2023-05-14T06:49:18.261Z,90.50
2023-05-14T06:51:45.371Z,90.20
2023-05-14T06:54:12.080Z,90.20
2023-05-14T06:56:38.819Z,90.50
2023-05-14T06:59:05.487Z,90.20
2023-05-14T07:01:36.479Z,90.20
2023-05-14T07:04:04.213Z,90.70
2023-05-14T07:06:31.872Z,90.70
2023-05-14T07:09:00.789Z,90.20
2023-05-14T07:11:27.633Z,90.20
2023-05-14T07:13:54.318Z,89.50
2023-05-14T07:16:21.118Z,88.40
2023-05-14T07:18:47.820Z,88.80
2023-05-14T07:21:15.315Z,87.30
2023-05-14T07:23:42.054Z,86.90
2023-05-14T07:26:08.955Z,87.70
2023-05-14T07:28:35.919Z,88.20
2023-05-14T07:31:04.302Z,86.50
2023-05-14T07:33:30.964Z,85.80
2023-05-14T07:35:57.716Z,86.00
2023-05-14T07:38:25.100Z,86.10
2023-05-14T07:40:51.848Z,85.00
2023-05-14T07:43:18.511Z,83.90
2023-05-14T07:45:45.324Z,84.40
2023-05-14T07:48:12.073Z,82.80
2023-05-14T07:50:39.016Z,81.50
2023-05-14T07:53:05.751Z,82.70
2023-05-14T07:55:33.095Z,81.50
2023-05-14T07:57:59.768Z,80.70
2023-05-14T08:00:26.699Z,81.40
2023-05-14T08:02:54.733Z,81.60
2023-05-14T08:05:21.642Z,80.60
2023-05-14T08:07:48.535Z,80.20
2023-05-14T08:10:15.173Z,80.60
2023-05-14T08:12:42.573Z,79.90
2023-05-14T08:15:10.345Z,79.50
2023-05-14T08:17:37.052Z,79.30
2023-05-14T08:20:05.913Z,78.30
2023-05-14T08:22:32.583Z,79.40
2023-05-14T08:25:00.290Z,77.40
2023-05-14T08:27:27.764Z,76.50
2023-05-14T08:29:55.067Z,77.00
2023-05-14T08:32:23.793Z,77.10
2023-05-14T08:34:51.847Z,76.10
2023-05-14T08:37:18.887Z,74.40
2023-05-14T08:39:45.601Z,73.50
2023-05-14T08:42:13.381Z,76.10
2023-05-14T08:44:48.038Z,74.30
2023-05-14T08:47:18.495Z,74.10
2023-05-14T08:49:48.908Z,73.40
2023-05-14T08:52:17.786Z,74.60
2023-05-14T08:54:46.529Z,72.20
2023-05-14T08:57:14.130Z,74.00
2023-05-14T08:59:41.013Z,75.70
2023-05-14T09:02:11.517Z,74.70
2023-05-14T09:04:39.719Z,71.70
2023-05-14T09:07:07.160Z,73.30
2023-05-14T09:09:34.209Z,70.10
2023-05-14T09:12:01.286Z,70.80
2023-05-14T09:14:28.012Z,70.10
2023-05-14T09:16:54.881Z,69.90
2023-05-14T09:19:22.049Z,69.80
2023-05-14T09:21:49.956Z,70.20
2023-05-14T09:24:20.993Z,69.80
2023-05-14T09:26:51.321Z,70.20
2023-05-14T09:29:18.176Z,70.70
2023-05-14T09:31:44.882Z,70.00
2023-05-14T09:34:11.606Z,70.20
2023-05-14T09:36:38.230Z,70.00
2023-05-14T09:39:06.243Z,71.20
2023-05-14T09:41:32.874Z,70.30
2023-05-14T09:44:01.382Z,69.80
2023-05-14T09:46:30.711Z,68.60
2023-05-14T09:48:57.761Z,67.00
2023-05-14T09:51:25.188Z,66.70
2023-05-14T09:53:53.644Z,67.60
2023-05-14T09:56:21.519Z,67.40
2023-05-14T09:58:48.236Z,66.50
2023-05-14T10:01:18.382Z,67.60
2023-05-14T10:03:45.360Z,67.90
2023-05-14T10:06:15.799Z,68.50
2023-05-14T10:08:45.023Z,68.90
2023-05-14T10:11:14.618Z,68.90
2023-05-14T10:13:49.706Z,68.80
2023-05-14T10:16:19.538Z,67.40
2023-05-14T10:18:51.266Z,65.30
2023-05-14T10:21:20.886Z,68.50
2023-05-14T10:23:48.883Z,67.70
2023-05-14T10:26:16.184Z,68.60
2023-05-14T10:28:43.922Z,69.80
2023-05-14T10:31:10.997Z,67.30
2023-05-14T10:33:49.484Z,66.10
2023-05-14T10:36:17.640Z,66.50
2023-05-14T10:38:44.555Z,65.90
2023-05-14T10:41:14.234Z,67.70
2023-05-14T10:43:41.933Z,67.50
2023-05-14T10:46:11.186Z,67.80
2023-05-14T10:48:41.164Z,67.40
2023-05-14T10:51:08.728Z,67.10
2023-05-14T10:53:36.810Z,67.90
2023-05-14T10:56:05.818Z,68.10
2023-05-14T10:58:36.778Z,68.70
2023-05-14T11:01:05.353Z,70.10
2023-05-14T11:03:41.144Z,69.70
2023-05-14T11:06:08.752Z,69.50
2023-05-14T11:08:36.287Z,70.00
2023-05-14T11:11:03.886Z,70.80
2023-05-14T11:13:31.038Z,70.30
2023-05-14T11:16:08.769Z,70.90
2023-05-14T11:18:42.806Z,71.10
2023-05-14T11:21:09.865Z,71.40
2023-05-14T11:23:36.561Z,72.10
2023-05-14T11:26:03.402Z,70.70
2023-05-14T11:28:30.205Z,71.40
2023-05-14T11:30:56.992Z,70.90
2023-05-14T11:33:23.689Z,71.20
2023-05-14T11:35:51.313Z,70.30
2023-05-14T11:38:19.535Z,71.10
2023-05-14T11:40:52.867Z,70.60
2023-05-14T11:43:19.805Z,70.50
2023-05-14T11:45:50.172Z,71.00
2023-05-14T11:48:17.518Z,70.80
2023-05-14T11:50:47.048Z,70.70
2023-05-14T11:53:18.328Z,71.90
2023-05-14T11:55:48.345Z,72.20
2023-05-14T11:58:16.400Z,71.70
2023-05-14T12:00:44.667Z,72.90
2023-05-14T12:03:12.049Z,72.50
2023-05-14T12:05:39.283Z,71.50
2023-05-14T12:08:20.914Z,71.60
2023-05-14T12:10:47.611Z,70.70
2023-05-14T12:13:15.761Z,70.60
2023-05-14T12:15:45.216Z,70.60
2023-05-14T12:18:23.469Z,69.80
2023-05-14T12:20:51.682Z,67.80
2023-05-14T12:23:25.965Z,67.00
2023-05-14T12:25:52.752Z,66.50
2023-05-14T12:28:20.222Z,64.80
2023-05-14T12:30:47.081Z,64.60
2023-05-14T12:33:14.183Z,64.40
2023-05-14T12:35:41.021Z,64.60
2023-05-14T12:38:07.732Z,64.60
2023-05-14T12:40:35.764Z,65.10
2023-05-14T12:43:03.477Z,65.20
2023-05-14T12:45:30.637Z,65.90
2023-05-14T12:47:57.689Z,66.80
2023-05-14T12:50:24.570Z,65.80
2023-05-14T12:52:51.464Z,64.90
2023-05-14T12:55:18.112Z,65.10
2023-05-14T12:57:45.426Z,63.50
2023-05-14T13:00:14.120Z,64.60
2023-05-14T13:02:48.314Z,64.70
2023-05-14T13:05:15.059Z,65.00
2023-05-14T13:07:41.864Z,65.70
2023-05-14T13:10:09.539Z,66.00
2023-05-14T13:12:36.222Z,65.40
2023-05-14T13:15:04.045Z,66.30
2023-05-14T13:17:30.942Z,66.70
2023-05-14T13:19:57.708Z,66.50
2023-05-14T13:22:24.437Z,67.00
2023-05-14T13:24:51.150Z,67.00
2023-05-14T13:27:17.900Z,67.00
2023-05-14T13:29:44.662Z,67.90
2023-05-14T13:32:12.035Z,66.80
2023-05-14T13:34:38.687Z,67.70
2023-05-14T13:37:05.434Z,67.30
2023-05-14T13:39:32.196Z,67.10
2023-05-14T13:41:58.899Z,66.60
2023-05-14T13:44:26.240Z,67.20
2023-05-14T13:46:53.178Z,65.90
2023-05-14T13:49:20.613Z,65.00
2023-05-14T13:51:47.270Z,65.50
2023-05-14T13:54:14.216Z,65.20
2023-05-14T13:56:41.190Z,66.50
2023-05-14T13:59:07.947Z,66.30
2023-05-14T14:01:34.656Z,66.80
2023-05-14T14:04:01.365Z,67.50
2023-05-14T14:06:31.788Z,67.00
2023-05-14T14:08:58.491Z,66.90
2023-05-14T14:11:25.347Z,66.70
2023-05-14T14:13:52.061Z,67.40
2023-05-14T14:16:18.923Z,66.10
2023-05-14T14:18:45.754Z,65.80
2023-05-14T14:21:12.542Z,65.90
2023-05-14T14:23:39.898Z,65.80
2023-05-14T14:26:06.600Z,65.50
2023-05-14T14:28:33.297Z,66.30
2023-05-14T14:31:00.091Z,64.90
2023-05-14T14:33:26.871Z,65.50
2023-05-14T14:35:53.533Z,64.90
2023-05-14T14:38:20.352Z,64.40
2023-05-14T14:40:47.868Z,64.70
2023-05-14T14:43:14.494Z,64.30
2023-05-14T14:45:42.189Z,62.90
2023-05-14T14:48:30.151Z,62.30
2023-05-14T14:50:57.503Z,62.00
2023-05-14T14:53:24.599Z,61.70
2023-05-14T14:55:52.596Z,61.60
2023-05-14T14:58:20.519Z,62.50
2023-05-14T15:00:47.673Z,61.60
2023-05-14T15:03:15.247Z,61.60
2023-05-14T15:05:42.091Z,62.10
2023-05-14T15:08:08.771Z,60.90
2023-05-14T15:10:37.413Z,59.90
2023-05-14T15:13:05.857Z,59.60
2023-05-14T15:15:33.008Z,60.70
2023-05-14T15:17:59.747Z,61.90
2023-05-14T15:20:26.800Z,63.80
2023-05-14T15:22:53.519Z,62.80
2023-05-14T15:25:21.099Z,62.90
2023-05-14T15:27:48.100Z,64.00
2023-05-14T15:30:16.086Z,64.20
2023-05-14T15:32:44.546Z,64.80
2023-05-14T15:35:11.556Z,64.70
2023-05-14T15:37:40.317Z,64.90
2023-05-14T15:40:08.428Z,65.40
2023-05-14T15:42:36.179Z,65.70
2023-05-14T15:45:03.365Z,66.50
2023-05-14T15:47:31.067Z,66.20
2023-05-14T15:49:58.177Z,66.90
2023-05-14T15:52:25.171Z,65.90
2023-05-14T15:54:52.001Z,66.10
2023-05-14T15:57:19.996Z,65.10
2023-05-14T15:59:47.198Z,65.10
2023-05-14T16:02:15.531Z,65.40
2023-05-14T16:04:44.440Z,64.90
2023-05-14T16:07:11.665Z,65.40
2023-05-14T16:09:38.694Z,66.20
2023-05-14T16:12:06.693Z,66.30
2023-05-14T16:14:34.093Z,66.30
2023-05-14T16:17:01.422Z,67.30
2023-05-14T16:19:28.433Z,66.30
2023-05-14T16:21:55.992Z,67.10
2023-05-14T16:24:22.726Z,67.30
2023-05-14T16:26:49.480Z,67.30
2023-05-14T16:29:16.145Z,66.90
2023-05-14T16:31:43.573Z,68.40
2023-05-14T16:34:10.290Z,67.80
2023-05-14T16:36:44.362Z,66.80
2023-05-14T16:39:11.708Z,66.50
2023-05-14T16:41:38.357Z,67.70
2023-05-14T16:44:05.232Z,69.60
2023-05-14T16:46:32.575Z,69.80
2023-05-14T16:48:59.456Z,69.90
2023-05-14T16:51:26.200Z,70.30
2023-05-14T16:53:55.440Z,71.60
2023-05-14T16:56:23.165Z,73.60
2023-05-14T16:58:50.040Z,70.00
2023-05-14T17:01:16.841Z,70.10
2023-05-14T17:03:44.965Z,73.20
2023-05-14T17:06:11.801Z,70.90
2023-05-14T17:08:38.843Z,71.20
2023-05-14T17:11:05.912Z,71.70
2023-05-14T17:13:33.602Z,72.20
2023-05-14T17:16:01.553Z,72.30
2023-05-14T17:18:32.125Z,72.80
2023-05-14T17:20:58.923Z,76.30
2023-05-14T17:23:25.647Z,72.50
2023-05-14T17:25:52.468Z,72.60
2023-05-14T17:28:19.174Z,75.00
2023-05-14T17:30:46.581Z,73.50
2023-05-14T17:33:13.388Z,73.40
2023-05-14T17:35:40.139Z,74.10
2023-05-14T17:38:06.823Z,74.10
2023-05-14T17:40:33.949Z,75.20
2023-05-14T17:43:00.769Z,74.50
2023-05-14T17:45:28.564Z,76.20
2023-05-14T17:47:58.075Z,75.10
2023-05-14T17:50:24.842Z,75.60
2023-05-14T17:52:51.559Z,75.40
2023-05-14T17:55:18.535Z,83.70
2023-05-14T17:57:45.406Z,77.50
2023-05-14T18:00:13.170Z,77.40
2023-05-14T18:02:40.783Z,77.40
2023-05-14T18:05:08.911Z,77.90
2023-05-14T18:07:35.780Z,77.60
2023-05-14T18:10:02.721Z,78.30
2023-05-14T18:12:29.374Z,78.20
2023-05-14T18:14:56.076Z,80.60
2023-05-14T18:17:22.801Z,79.10
2023-05-14T18:19:49.439Z,79.30
2023-05-14T18:22:16.858Z,80.50
2023-05-14T18:24:43.891Z,81.90
2023-05-14T18:27:10.783Z,80.90
2023-05-14T18:29:37.506Z,81.30
2023-05-14T18:32:04.807Z,80.40
2023-05-14T18:34:31.467Z,81.10
2023-05-14T18:36:58.218Z,81.60
2023-05-14T18:39:25.531Z,82.30
2023-05-14T18:41:52.254Z,82.70
2023-05-14T18:44:18.925Z,83.10
2023-05-14T18:46:45.968Z,83.60
2023-05-14T18:49:12.749Z,83.70
2023-05-14T18:51:39.408Z,82.70
2023-05-14T18:54:06.422Z,84.50
2023-05-14T18:56:34.981Z,86.50
2023-05-14T18:59:01.894Z,86.30
2023-05-14T19:01:28.659Z,86.30
2023-05-14T19:03:55.884Z,86.70
2023-05-14T19:06:22.717Z,86.50
2023-05-14T19:08:49.573Z,86.90
2023-05-14T19:11:17.410Z,87.10
2023-05-14T19:13:46.149Z,87.50
2023-05-14T19:16:13.114Z,88.30
2023-05-14T19:18:39.885Z,87.80
2023-05-14T19:21:06.608Z,88.00
2023-05-14T19:23:33.264Z,88.40
2023-05-14T19:26:00.350Z,89.60
2023-05-14T19:28:27.133Z,89.30
2023-05-14T19:30:56.473Z,89.60
2023-05-14T19:33:23.154Z,89.60
2023-05-14T19:35:50.583Z,89.50
2023-05-14T19:38:18.446Z,90.30
2023-05-14T19:40:45.252Z,90.50
2023-05-14T19:43:12.004Z,90.90
2023-05-14T19:45:38.875Z,91.10
2023-05-14T19:48:06.605Z,90.90
2023-05-14T19:50:33.730Z,91.20
2023-05-14T19:53:00.654Z,90.90
2023-05-14T19:55:27.568Z,90.80
2023-05-14T19:57:54.358Z,90.80
2023-05-14T20:00:21.947Z,90.80
2023-05-14T20:02:48.772Z,91.00
2023-05-14T20:05:16.333Z,91.20
2023-05-14T20:07:43.108Z,91.20
2023-05-14T20:10:10.682Z,91.50
2023-05-14T20:12:37.409Z,91.30
2023-05-14T20:15:04.803Z,91.50
2023-05-14T20:17:32.013Z,91.50
2023-05-14T20:19:58.860Z,91.70
2023-05-14T20:22:26.286Z,92.10
2023-05-14T20:24:52.928Z,92.30
2023-05-14T20:27:19.682Z,92.30
2023-05-14T20:29:46.439Z,92.60
2023-05-14T20:32:14.110Z,92.60
2023-05-14T20:34:40.784Z,92.60
2023-05-14T20:37:08.098Z,92.80
2023-05-14T20:39:35.536Z,92.90
2023-05-14T20:42:02.335Z,93.00
2023-05-14T20:44:29.171Z,93.20
2023-05-14T20:46:55.843Z,93.10
2023-05-14T20:49:22.541Z,93.50
2023-05-14T20:51:49.253Z,93.70
2023-05-14T20:54:16.302Z,93.80
2023-05-14T20:56:43.633Z,94.10
2023-05-14T20:59:10.245Z,94.10
2023-05-14T21:01:36.944Z,94.10
2023-05-14T21:04:04.132Z,94.20
2023-05-14T21:06:30.930Z,94.20
2023-05-14T21:08:57.592Z,94.50
2023-05-14T21:11:24.389Z,94.50
2023-05-14T21:13:52.025Z,94.90
2023-05-14T21:16:19.531Z,94.70
2023-05-14T21:18:46.406Z,94.80
2023-05-14T21:21:13.136Z,94.80
2023-05-14T21:23:39.848Z,95.10
2023-05-14T21:26:06.686Z,95.00
2023-05-14T21:28:33.412Z,95.20
2023-05-14T21:31:00.883Z,95.40
2023-05-14T21:33:27.558Z,95.60
2023-05-14T21:35:54.229Z,95.60
2023-05-14T21:38:21.296Z,95.80
2023-05-14T21:40:50.754Z,95.70
2023-05-14T21:43:17.394Z,95.80
2023-05-14T21:45:46.077Z,96.20
2023-05-14T21:48:13.676Z,96.50
2023-05-14T21:53:07.417Z,96.70
2023-05-14T21:55:34.849Z,97.00
2023-05-14T21:58:02.162Z,97.00
2023-05-14T22:00:28.840Z,97.10
2023-05-14T22:02:55.596Z,97.40
2023-05-14T22:05:23.346Z,97.50
2023-05-14T22:07:51.309Z,97.60
2023-05-14T22:10:18.838Z,97.80
2023-05-14T22:12:46.093Z,97.70
2023-05-14T22:15:12.898Z,98.00
2023-05-14T22:17:39.726Z,98.00
2023-05-14T22:20:09.025Z,97.90
2023-05-14T22:22:36.486Z,98.10
2023-05-14T22:25:03.230Z,98.50
2023-05-14T22:27:30.256Z,98.70
2023-05-14T22:29:57.179Z,99.00
2023-05-14T22:32:24.117Z,99.30
2023-05-14T22:34:51.565Z,99.10
2023-05-14T22:37:18.515Z,99.20
2023-05-14T22:39:45.999Z,99.50
2023-05-14T22:42:12.740Z,99.60
2023-05-14T22:44:39.462Z,99.90
2023-05-14T22:47:06.574Z,99.90
2023-05-14T22:49:33.291Z,99.90
2023-05-14T22:52:00.008Z,99.90
2023-05-14T22:54:26.683Z,99.90
2023-05-14T22:56:54.034Z,99.90
2023-05-14T22:59:22.736Z,99.90
2023-05-14T23:01:50.558Z,99.90
2023-05-14T23:04:17.322Z,99.90
2023-05-14T23:06:44.171Z,99.90
2023-05-14T23:09:10.826Z,99.90
2023-05-14T23:11:37.542Z,99.90
2023-05-14T23:14:04.902Z,99.90
2023-05-14T23:16:31.652Z,99.90
2023-05-14T23:18:58.531Z,99.90
2023-05-14T23:21:25.397Z,99.90
2023-05-14T23:23:52.081Z,99.90
2023-05-14T23:26:18.808Z,99.90
2023-05-14T23:28:46.622Z,99.90
2023-05-14T23:31:13.978Z,99.90
2023-05-14T23:33:40.785Z,99.90
2023-05-14T23:36:08.336Z,99.90
2023-05-14T23:38:35.065Z,99.90
2023-05-14T23:41:01.785Z,99.90
2023-05-14T23:43:28.456Z,99.90
2023-05-14T23:45:55.297Z,99.90
2023-05-14T23:48:22.670Z,99.90
2023-05-14T23:50:49.301Z,99.90
2023-05-14T23:53:15.949Z,99.90
2023-05-14T23:55:42.676Z,99.90
2023-05-14T23:58:09.403Z,99.90
